createdAt,value
2023-05-14T00:00:15.469Z,10.43
2023-05-14T00:03:01.271Z,8.40
2023-05-14T00:05:48.506Z,8.07
2023-05-14T00:08:34.399Z,6.15
2023-05-14T00:11:21.022Z,5.35
2023-05-14T00:14:06.500Z,5.35
2023-05-14T00:16:52.071Z,5.68
2023-05-14T00:19:37.756Z,5.03
2023-05-14T00:22:25.846Z,5.32
2023-05-14T00:25:11.252Z,4.50
2023-05-14T00:27:58.885Z,4.55
2023-05-14T00:30:44.814Z,4.88
2023-05-14T00:33:30.093Z,3.92
2023-05-14T00:36:15.760Z,4.40
2023-05-14T00:39:01.405Z,3.72
2023-05-14T00:41:46.937Z,4.13
2023-05-14T00:44:33.005Z,3.13
2023-05-14T00:47:18.903Z,4.50
2023-05-14T00:50:04.792Z,4.68
2023-05-14T00:52:50.287Z,3.80
2023-05-14T00:55:40.718Z,3.83
2023-05-14T00:58:26.456Z,3.70
2023-05-14T01:01:15.183Z,3.58
2023-05-14T01:04:01.199Z,3.13
2023-05-14T01:07:09.577Z,3.17
2023-05-14T01:10:42.330Z,3.72
2023-05-14T01:16:31.879Z,3.05
2023-05-14T01:19:25.529Z,2.83
2023-05-14T01:22:11.876Z,3.10
2023-05-14T01:24:57.532Z,2.58
2023-05-14T01:27:50.371Z,2.72
2023-05-14T01:30:42.118Z,2.83
2023-05-14T01:33:29.754Z,3.65
2023-05-14T01:36:15.741Z,2.58
2023-05-14T01:39:03.851Z,3.05
2023-05-14T01:41:50.885Z,3.17
2023-05-14T01:44:37.371Z,2.78
2023-05-14T01:47:22.968Z,3.05
2023-05-14T01:50:08.765Z,2.88
2023-05-14T01:52:56.686Z,2.85
2023-05-14T01:55:42.732Z,3.10
2023-05-14T01:58:28.781Z,3.30
2023-05-14T02:01:14.203Z,3.88
2023-05-14T02:04:01.166Z,3.35
2023-05-14T02:06:46.426Z,3.42
2023-05-14T02:09:31.739Z,3.72
2023-05-14T02:12:17.271Z,3.25
2023-05-14T02:15:03.946Z,3.60
2023-05-14T02:17:49.634Z,3.28
2023-05-14T02:20:35.025Z,3.65
2023-05-14T02:23:25.679Z,3.55
2023-05-14T02:26:16.908Z,3.65
2023-05-14T02:29:02.743Z,3.30
2023-05-14T02:31:48.191Z,3.45
2023-05-14T02:34:34.619Z,3.55
2023-05-14T02:37:20.689Z,3.15
2023-05-14T02:40:06.697Z,2.83
2023-05-14T02:42:52.296Z,3.30
2023-05-14T02:45:38.752Z,3.25
2023-05-14T02:48:24.193Z,3.40
2023-05-14T02:51:10.782Z,3.05
2023-05-14T02:53:56.486Z,2.97
2023-05-14T02:56:41.819Z,3.15
2023-05-14T02:59:27.682Z,3.22
2023-05-14T03:02:13.642Z,3.00
2023-05-14T03:04:59.247Z,3.58
2023-05-14T03:07:44.966Z,3.15
2023-05-14T03:10:33.459Z,2.90
2023-05-14T03:13:20.762Z,3.33
2023-05-14T03:16:06.470Z,3.45
2023-05-14T03:18:52.174Z,3.30
2023-05-14T03:21:37.729Z,3.10
2023-05-14T03:24:23.247Z,3.50
2023-05-14T03:27:11.147Z,3.40
2023-05-14T03:29:56.601Z,2.85
2023-05-14T03:32:42.994Z,4.18
2023-05-14T03:35:28.582Z,2.58
2023-05-14T03:38:14.125Z,3.67
2023-05-14T03:40:59.665Z,2.85
2023-05-14T03:43:48.087Z,3.08
2023-05-14T03:46:33.626Z,3.05
2023-05-14T03:49:19.221Z,3.22
2023-05-14T03:52:05.027Z,3.70
2023-05-14T03:54:50.884Z,3.05
2023-05-14T03:57:36.921Z,3.10
2023-05-14T04:00:22.699Z,3.42
2023-05-14T04:03:10.451Z,3.25
2023-05-14T04:05:55.789Z,3.75
2023-05-14T04:08:41.820Z,3.97
2023-05-14T04:11:27.447Z,3.55
2023-05-14T04:14:13.008Z,3.78
2023-05-14T04:17:00.215Z,3.30
2023-05-14T04:19:48.875Z,3.50
2023-05-14T04:22:34.492Z,4.07
2023-05-14T04:25:20.159Z,4.00
2023-05-14T04:28:06.045Z,3.20
2023-05-14T04:30:51.984Z,3.63
2023-05-14T04:33:40.605Z,4.03
2023-05-14T04:36:25.956Z,3.97
2023-05-14T04:39:12.523Z,3.80
2023-05-14T04:41:58.216Z,4.05
2023-05-14T04:44:43.575Z,4.13
2023-05-14T04:47:29.709Z,3.88
2023-05-14T04:50:15.960Z,4.22
2023-05-14T04:53:01.320Z,4.45
2023-05-14T04:55:46.613Z,3.65
2023-05-14T04:58:34.484Z,4.70
2023-05-14T05:01:21.042Z,4.03
2023-05-14T05:04:06.422Z,3.92
2023-05-14T05:06:51.554Z,4.35
2023-05-14T05:09:36.975Z,3.88
2023-05-14T05:12:22.995Z,4.38
2023-05-14T05:15:09.759Z,4.32
2023-05-14T05:17:55.065Z,3.53
2023-05-14T05:20:40.576Z,4.55
2023-05-14T05:23:26.192Z,4.25
2023-05-14T05:26:11.539Z,4.30
2023-05-14T05:28:56.985Z,4.45
2023-05-14T05:31:42.315Z,4.65
2023-05-14T05:34:27.921Z,4.00
2023-05-14T05:37:15.019Z,4.20
2023-05-14T05:40:00.278Z,4.28
2023-05-14T05:42:45.741Z,4.80
2023-05-14T05:45:31.196Z,4.45
2023-05-14T05:48:17.107Z,4.53
2023-05-14T05:51:02.771Z,4.20
2023-05-14T05:53:48.105Z,4.43
2023-05-14T05:56:33.489Z,4.60
2023-05-14T05:59:18.965Z,4.43
2023-05-14T06:02:04.716Z,4.65
2023-05-14T06:04:50.384Z,4.18
2023-05-14T06:07:36.003Z,4.80
2023-05-14T06:10:22.113Z,5.13
2023-05-14T06:13:08.072Z,4.40
2023-05-14T06:15:53.535Z,4.80
2023-05-14T06:18:38.983Z,4.50
2023-05-14T06:21:25.171Z,5.55
2023-05-14T06:24:11.156Z,4.55
2023-05-14T06:26:56.678Z,6.00
2023-05-14T06:29:42.181Z,6.00
2023-05-14T06:32:27.679Z,5.93
2023-05-14T06:35:12.928Z,5.03
2023-05-14T06:37:58.397Z,5.43
2023-05-14T06:40:43.821Z,5.10
2023-05-14T06:43:29.367Z,4.97
2023-05-14T06:46:15.391Z,4.75
2023-05-14T06:49:01.117Z,4.93
2023-05-14T06:51:46.317Z,5.13
2023-05-14T06:54:31.874Z,4.50
2023-05-14T06:57:17.435Z,4.30
2023-05-14T07:00:03.776Z,4.15
2023-05-14T07:02:49.742Z,3.83
2023-05-14T07:05:35.036Z,3.80
2023-05-14T07:08:20.717Z,3.50
2023-05-14T07:11:06.154Z,3.42
2023-05-14T07:13:51.451Z,2.80
2023-05-14T07:16:37.175Z,2.70
2023-05-14T07:19:22.768Z,2.97
2023-05-14T07:22:08.472Z,2.90
2023-05-14T07:24:53.960Z,3.50
2023-05-14T07:27:39.326Z,2.17
2023-05-14T07:30:25.103Z,2.63
2023-05-14T07:33:11.001Z,2.92
2023-05-14T07:35:56.417Z,2.80
2023-05-14T07:38:41.962Z,3.25
2023-05-14T07:41:27.633Z,2.33
2023-05-14T07:44:13.173Z,2.58
2023-05-14T07:46:58.887Z,3.08
2023-05-14T07:49:44.174Z,2.70
2023-05-14T07:52:29.437Z,2.40
2023-05-14T07:55:14.925Z,2.78
2023-05-14T07:58:00.472Z,2.47
2023-05-14T08:00:46.198Z,1.98
2023-05-14T08:03:31.660Z,2.30
2023-05-14T08:06:17.414Z,2.40
2023-05-14T08:09:05.423Z,1.98
2023-05-14T08:11:50.849Z,2.17
2023-05-14T08:14:36.467Z,2.00
2023-05-14T08:17:22.139Z,2.08
2023-05-14T08:20:09.128Z,2.08
2023-05-14T08:22:54.693Z,1.58
2023-05-14T08:25:40.066Z,1.70
2023-05-14T08:28:25.473Z,1.67
2023-05-14T08:31:11.012Z,1.58
2023-05-14T08:33:56.586Z,1.30
2023-05-14T08:36:42.252Z,1.55
2023-05-14T08:39:27.591Z,1.75
2023-05-14T08:42:13.966Z,2.22
2023-05-14T08:45:04.079Z,1.70
2023-05-14T08:47:51.560Z,1.50
2023-05-14T08:50:37.627Z,1.95
2023-05-14T08:53:23.529Z,1.40
2023-05-14T08:56:10.179Z,1.30
2023-05-14T08:58:55.617Z,1.50
2023-05-14T09:01:51.588Z,1.48
2023-05-14T09:04:37.545Z,1.27
2023-05-14T09:07:23.976Z,1.65
2023-05-14T09:10:10.263Z,1.35
2023-05-14T09:12:56.088Z,1.63
2023-05-14T09:15:41.682Z,1.73
2023-05-14T09:18:27.291Z,1.77
2023-05-14T09:21:15.094Z,2.15
2023-05-14T09:24:01.107Z,2.17
2023-05-14T09:26:50.713Z,1.80
2023-05-14T09:29:37.238Z,1.40
2023-05-14T09:32:22.520Z,1.58
2023-05-14T09:35:11.913Z,1.50
2023-05-14T09:37:57.341Z,1.23
2023-05-14T09:40:43.091Z,1.13
2023-05-14T09:43:28.439Z,1.55
2023-05-14T09:46:13.802Z,1.20
2023-05-14T09:48:59.406Z,1.13
2023-05-14T09:51:45.300Z,1.45
2023-05-14T09:54:33.301Z,1.40
2023-05-14T09:57:18.844Z,1.20
2023-05-14T10:00:04.968Z,1.08
2023-05-14T10:02:53.312Z,0.75
2023-05-14T10:05:41.127Z,0.88
2023-05-14T10:08:36.582Z,0.82
2023-05-14T10:11:26.255Z,0.65
2023-05-14T10:14:32.819Z,0.55
2023-05-14T10:17:21.467Z,0.50
2023-05-14T10:20:10.253Z,0.55
2023-05-14T10:22:56.566Z,0.63
2023-05-14T10:25:42.509Z,0.68
2023-05-14T10:28:28.604Z,0.70
2023-05-14T10:31:14.045Z,1.30
2023-05-14T10:33:59.921Z,0.73
2023-05-14T10:36:45.851Z,0.95
2023-05-14T10:39:57.769Z,0.70
2023-05-14T10:42:44.054Z,0.80
2023-05-14T10:45:30.550Z,0.80
2023-05-14T10:48:16.322Z,0.80
2023-05-14T10:51:02.959Z,0.77
2023-05-14T10:53:49.352Z,0.80
2023-05-14T10:56:34.610Z,0.75
2023-05-14T10:59:19.980Z,0.60
2023-05-14T11:02:05.984Z,1.08
2023-05-14T11:05:16.938Z,1.02
2023-05-14T11:08:06.139Z,0.90
2023-05-14T11:10:52.421Z,0.77
2023-05-14T11:13:38.806Z,0.90
2023-05-14T11:16:26.505Z,0.98
2023-05-14T11:19:11.930Z,0.80
2023-05-14T11:21:57.234Z,0.65
2023-05-14T11:24:42.646Z,0.40
2023-05-14T11:27:28.304Z,0.57
2023-05-14T11:30:18.512Z,0.43
2023-05-14T11:33:04.332Z,0.38
2023-05-14T11:35:51.985Z,0.32
2023-05-14T11:38:51.599Z,0.30
2023-05-14T11:41:37.143Z,0.50
2023-05-14T11:44:22.830Z,0.40
2023-05-14T11:47:08.400Z,0.43
2023-05-14T11:49:54.086Z,0.50
2023-05-14T11:52:42.591Z,0.35
2023-05-14T11:55:28.073Z,0.47
2023-05-14T11:58:14.184Z,0.60
2023-05-14T12:00:59.948Z,0.73
2023-05-14T12:03:45.612Z,0.70
2023-05-14T12:06:32.502Z,0.70
2023-05-14T12:09:20.018Z,0.50
2023-05-14T12:12:12.886Z,0.60
2023-05-14T12:14:59.930Z,0.55
2023-05-14T12:17:52.051Z,0.70
2023-05-14T12:20:37.825Z,0.93
2023-05-14T12:23:28.919Z,0.90
2023-05-14T12:26:14.418Z,0.80
2023-05-14T12:29:01.885Z,0.90
2023-05-14T12:31:48.674Z,0.77
2023-05-14T12:34:35.964Z,0.90
2023-05-14T12:37:22.862Z,0.73
2023-05-14T12:40:11.652Z,0.95
2023-05-14T12:42:57.412Z,0.90
2023-05-14T12:45:42.889Z,1.20
2023-05-14T12:48:28.432Z,0.80
2023-05-14T12:51:13.847Z,0.90
2023-05-14T12:53:59.182Z,0.82
2023-05-14T12:56:44.469Z,0.85
2023-05-14T12:59:30.056Z,0.43
2023-05-14T13:02:17.466Z,0.65
2023-05-14T13:05:03.810Z,0.70
2023-05-14T13:07:49.266Z,0.68
2023-05-14T13:10:34.631Z,1.00
2023-05-14T13:13:20.272Z,0.80
2023-05-14T13:16:05.913Z,0.82
2023-05-14T13:18:51.448Z,0.98
2023-05-14T13:21:36.702Z,0.70
2023-05-14T13:24:22.163Z,1.02
2023-05-14T13:27:07.586Z,1.10
2023-05-14T13:29:52.996Z,0.93
2023-05-14T13:32:39.270Z,1.00
2023-05-14T13:35:25.763Z,1.23
2023-05-14T13:38:11.308Z,0.98
2023-05-14T13:41:02.793Z,1.17
2023-05-14T13:43:48.412Z,1.17
2023-05-14T13:46:34.024Z,1.33
2023-05-14T13:49:19.684Z,1.42
2023-05-14T13:52:05.670Z,1.35
2023-05-14T13:54:51.346Z,1.05
2023-05-14T13:57:36.721Z,1.33
2023-05-14T14:00:22.452Z,1.25
2023-05-14T14:03:08.280Z,1.27
2023-05-14T14:05:53.632Z,1.20
2023-05-14T14:08:39.018Z,1.25
2023-05-14T14:11:24.371Z,1.40
2023-05-14T14:14:09.580Z,1.27
2023-05-14T14:16:54.964Z,1.23
2023-05-14T14:19:40.471Z,1.30
2023-05-14T14:22:28.115Z,1.67
2023-05-14T14:25:14.449Z,1.65
2023-05-14T14:28:00.115Z,0.90
2023-05-14T14:30:45.520Z,1.58
2023-05-14T14:33:30.657Z,1.20
2023-05-14T14:36:16.269Z,1.48
2023-05-14T14:39:01.488Z,1.45
2023-05-14T14:41:47.810Z,1.80
2023-05-14T14:44:33.218Z,1.20
2023-05-14T14:47:18.538Z,1.25
2023-05-14T14:50:04.525Z,1.60
2023-05-14T14:52:49.729Z,1.67
2023-05-14T14:55:35.138Z,2.05
2023-05-14T14:58:21.328Z,1.73
2023-05-14T15:01:07.215Z,1.88
2023-05-14T15:03:52.860Z,1.55
2023-05-14T15:06:38.165Z,1.42
2023-05-14T15:09:23.482Z,1.50
2023-05-14T15:12:10.247Z,1.90
2023-05-14T15:14:55.838Z,1.52
2023-05-14T15:17:41.470Z,1.65
2023-05-14T15:20:26.721Z,1.90
2023-05-14T15:23:12.351Z,1.55
2023-05-14T15:25:58.010Z,1.80
2023-05-14T15:28:43.748Z,1.30
2023-05-14T15:31:29.172Z,1.65
2023-05-14T15:34:14.438Z,1.17
2023-05-14T15:36:59.951Z,1.25
2023-05-14T15:39:45.454Z,1.55
2023-05-14T15:42:31.182Z,1.60
2023-05-14T15:45:17.073Z,1.27
2023-05-14T15:48:02.496Z,1.02
2023-05-14T15:50:49.670Z,7.05
2023-05-14T15:53:35.618Z,3.03
2023-05-14T15:56:22.928Z,2.08
2023-05-14T15:59:08.337Z,2.70
2023-05-14T16:01:53.695Z,2.28
2023-05-14T16:04:39.187Z,10.43
2023-05-14T16:07:24.745Z,2.85
2023-05-14T16:10:10.458Z,3.72
2023-05-14T16:12:56.038Z,1.48
2023-05-14T16:15:41.644Z,3.55
2023-05-14T16:18:26.879Z,2.15
2023-05-14T16:21:12.398Z,1.60
2023-05-14T16:23:57.729Z,3.10
2023-05-14T16:26:43.270Z,1.20
2023-05-14T16:29:28.909Z,2.50
2023-05-14T16:32:14.314Z,1.90
2023-05-14T16:35:01.826Z,1.45
2023-05-14T16:37:47.058Z,1.60
2023-05-14T16:40:32.410Z,1.50
2023-05-14T16:43:17.926Z,1.30
2023-05-14T16:46:03.308Z,1.00
2023-05-14T16:48:50.697Z,0.75
2023-05-14T16:51:37.365Z,0.75
2023-05-14T16:54:22.680Z,1.38
2023-05-14T16:57:08.036Z,1.05
2023-05-14T16:59:53.608Z,0.55
2023-05-14T17:02:39.508Z,0.88
2023-05-14T17:05:25.366Z,0.90
2023-05-14T17:08:11.374Z,0.40
2023-05-14T17:10:56.818Z,0.70
2023-05-14T17:13:42.441Z,0.73
2023-05-14T17:16:28.299Z,0.50
2023-05-14T17:19:13.742Z,1.02
2023-05-14T17:21:59.473Z,0.43
2023-05-14T17:24:45.120Z,0.90
2023-05-14T17:27:33.304Z,0.60
2023-05-14T17:30:18.571Z,0.70
2023-05-14T17:33:04.238Z,0.90
2023-05-14T17:35:49.691Z,0.63
2023-05-14T17:38:35.287Z,0.68
2023-05-14T17:41:21.634Z,0.82
2023-05-14T17:44:07.299Z,0.73
2023-05-14T17:46:52.698Z,1.15
2023-05-14T17:49:38.531Z,0.50
2023-05-14T17:52:23.982Z,0.95
2023-05-14T17:55:09.998Z,0.45
2023-05-14T17:57:55.328Z,1.05
2023-05-14T18:00:41.177Z,1.02
2023-05-14T18:03:26.977Z,0.95
2023-05-14T18:06:12.459Z,0.65
2023-05-14T18:08:57.899Z,1.25
2023-05-14T18:11:43.279Z,1.00
2023-05-14T18:14:28.961Z,0.90
2023-05-14T18:17:14.262Z,1.05
2023-05-14T18:20:00.274Z,1.40
2023-05-14T18:22:45.904Z,0.70
2023-05-14T18:25:31.255Z,0.95
2023-05-14T18:28:16.913Z,0.93
2023-05-14T18:31:04.173Z,2.42
2023-05-14T18:33:49.735Z,1.15
2023-05-14T18:36:35.012Z,1.00
2023-05-14T18:39:20.356Z,0.60
2023-05-14T18:42:06.182Z,1.27
2023-05-14T18:44:51.731Z,0.98
2023-05-14T18:47:37.398Z,1.10
2023-05-14T18:50:23.154Z,1.13
2023-05-14T18:53:08.547Z,1.38
2023-05-14T18:55:54.158Z,0.77
2023-05-14T18:58:39.354Z,0.75
2023-05-14T19:01:25.756Z,0.80
2023-05-14T19:04:11.752Z,0.50
2023-05-14T19:06:57.140Z,1.20
2023-05-14T19:09:42.800Z,0.75
2023-05-14T19:12:28.037Z,0.70
2023-05-14T19:15:13.694Z,1.58
2023-05-14T19:17:59.636Z,1.00
2023-05-14T19:20:46.684Z,0.70
2023-05-14T19:23:32.844Z,0.80
2023-05-14T19:26:18.418Z,0.98
2023-05-14T19:29:03.879Z,1.20
2023-05-14T19:31:50.132Z,0.90
2023-05-14T19:34:35.802Z,1.08
2023-05-14T19:37:21.406Z,0.82
2023-05-14T19:40:07.523Z,0.65
2023-05-14T19:42:53.180Z,0.60
2023-05-14T19:45:39.427Z,0.40
2023-05-14T19:48:24.998Z,0.45
2023-05-14T19:51:11.061Z,0.60
2023-05-14T19:53:56.761Z,0.70
2023-05-14T19:56:42.295Z,0.60
2023-05-14T19:59:29.498Z,1.05
2023-05-14T20:02:18.334Z,0.75
2023-05-14T20:05:06.792Z,1.00
2023-05-14T20:07:54.674Z,0.60
2023-05-14T20:10:41.511Z,0.60
2023-05-14T20:13:27.304Z,0.70
2023-05-14T20:16:16.715Z,0.65
2023-05-14T20:19:02.678Z,0.73
2023-05-14T20:21:48.630Z,1.00
2023-05-14T20:24:34.127Z,0.80
2023-05-14T20:27:19.543Z,1.17
2023-05-14T20:30:07.499Z,0.90
2023-05-14T20:32:52.952Z,0.60
2023-05-14T20:35:38.610Z,0.70
2023-05-14T20:38:25.699Z,0.93
2023-05-14T20:41:10.993Z,0.88
2023-05-14T20:43:56.434Z,0.90
2023-05-14T20:46:41.738Z,1.00
2023-05-14T20:49:27.025Z,0.60
2023-05-14T20:52:13.453Z,0.73
2023-05-14T20:55:01.396Z,0.90
2023-05-14T20:57:47.405Z,0.82
2023-05-14T21:00:33.146Z,0.95
2023-05-14T21:03:18.652Z,0.93
2023-05-14T21:06:05.228Z,0.95
2023-05-14T21:08:50.681Z,1.17
2023-05-14T21:11:36.479Z,1.02
2023-05-14T21:14:21.923Z,1.23
2023-05-14T21:17:07.754Z,0.85
2023-05-14T21:19:53.101Z,0.65
2023-05-14T21:22:38.279Z,1.42
2023-05-14T21:25:23.853Z,1.02
2023-05-14T21:28:09.572Z,1.45
2023-05-14T21:30:54.982Z,1.42
2023-05-14T21:33:41.038Z,1.33
2023-05-14T21:36:26.664Z,1.30
2023-05-14T21:39:12.380Z,1.10
2023-05-14T21:41:57.560Z,1.85
2023-05-14T21:44:42.779Z,0.80
2023-05-14T21:47:28.550Z,1.05
2023-05-14T21:50:13.934Z,0.85
2023-05-14T21:52:59.264Z,0.88
2023-05-14T21:55:44.617Z,1.33
2023-05-14T21:58:29.947Z,1.08
2023-05-14T22:01:15.648Z,0.95
2023-05-14T22:04:00.835Z,0.88
2023-05-14T22:06:46.598Z,1.10
2023-05-14T22:09:32.321Z,0.73
2023-05-14T22:12:17.581Z,0.80
2023-05-14T22:15:03.883Z,0.77
2023-05-14T22:17:49.684Z,1.10
2023-05-14T22:20:35.327Z,1.13
2023-05-14T22:23:20.882Z,0.90
2023-05-14T22:26:06.311Z,0.80
2023-05-14T22:28:52.661Z,1.15
2023-05-14T22:31:38.144Z,1.00
2023-05-14T22:34:23.448Z,0.65
2023-05-14T22:37:09.020Z,0.95
2023-05-14T22:39:54.572Z,1.00
2023-05-14T22:42:39.808Z,1.20
2023-05-14T22:45:25.430Z,1.02
2023-05-14T22:48:11.153Z,1.02
2023-05-14T22:50:56.839Z,1.48
2023-05-14T22:53:42.269Z,0.52
2023-05-14T22:56:28.231Z,1.00
2023-05-14T22:59:13.462Z,1.50
2023-05-14T23:01:58.924Z,1.10
2023-05-14T23:04:44.176Z,1.17
2023-05-14T23:07:29.598Z,1.20
2023-05-14T23:10:15.301Z,1.13
2023-05-14T23:13:00.856Z,1.10
2023-05-14T23:15:46.559Z,1.25
2023-05-14T23:18:32.192Z,1.50
2023-05-14T23:21:17.675Z,1.10
2023-05-14T23:24:02.960Z,1.13
2023-05-14T23:26:48.320Z,1.23
2023-05-14T23:29:33.631Z,1.75
2023-05-14T23:32:18.937Z,1.23
2023-05-14T23:35:04.989Z,1.23
2023-05-14T23:37:51.240Z,1.08
2023-05-14T23:40:36.535Z,0.85
2023-05-14T23:43:21.850Z,1.02
2023-05-14T23:46:08.240Z,1.00
2023-05-14T23:48:57.100Z,1.00
2023-05-14T23:51:42.619Z,1.45
2023-05-14T23:54:28.006Z,1.20
2023-05-14T23:57:14.650Z,1.00
